Time;durP1;ratioP1;P1;durP2;ratioP2;P2;SDS_P1;SDS_P2;PMS_P1;PMS_P2;Temp;Humidity;BMP_temperature;BMP_pressure;BME280_temperature;BME280_humidity;BME280_pressure;Samples;Min_cycle;Max_cycle;Signal;HPM_P1;HPM_P2
2021/08/01 00:02:11;;;;;;;11.65;6.18;;;;;;;29.82;42.77;99216.47;5052075;28;20039;-79
2021/08/01 00:04:36;;;;;;;13.75;6.25;;;;;;;29.90;43.01;99221.94;5051988;28;20025;-79
2021/08/01 00:07:03;;;;;;;14.38;7.13;;;;;;;29.58;42.61;99181.41;5052236;28;20106;-79
2021/08/01 00:09:28;;;;;;;9.55;5.75;;;;;;;29.64;42.95;99175.53;5052095;28;20017;-80
2021/08/01 00:11:54;;;;;;;9.07;5.95;;;;;;;29.72;43.21;99191.09;5051938;28;20025;-78
2021/08/01 00:14:19;;;;;;;8.50;5.75;;;;;;;29.85;42.83;99224.00;5050531;28;20020;-78
2021/08/01 00:16:45;;;;;;;8.98;5.80;;;;;;;29.85;43.37;99235.69;5051845;28;20032;-78
2021/08/01 00:19:10;;;;;;;9.90;5.97;;;;;;;29.47;43.55;99189.03;5051890;28;20079;-80
2021/08/01 00:21:36;;;;;;;12.23;6.07;;;;;;;29.49;43.68;99188.72;5051857;28;20072;-81
2021/08/01 00:24:01;;;;;;;12.00;6.38;;;;;;;29.14;43.45;99144.16;5051886;28;20482;-81
2021/08/01 00:26:26;;;;;;;10.07;6.22;;;;;;;29.77;43.62;99228.28;5051781;28;20017;-79
2021/08/01 00:28:52;;;;;;;11.07;7.00;;;;;;;29.79;44.29;99225.25;5051903;28;20502;-81
2021/08/01 00:31:17;;;;;;;7.57;6.25;;;;;;;29.30;44.38;99161.69;5051469;28;20556;-80
2021/08/01 00:33:43;;;;;;;16.25;7.15;;;;;;;29.21;44.89;99155.41;5050217;28;20056;-80
2021/08/01 00:36:08;;;;;;;12.85;7.53;;;;;;;29.30;44.83;99169.88;5051702;28;20410;-79
2021/08/01 00:38:34;;;;;;;13.00;7.32;;;;;;;29.26;45.33;99171.59;5051696;28;20082;-80
2021/08/01 00:41:00;;;;;;;15.55;8.32;;;;;;;29.40;45.28;99175.03;5051585;28;20096;-80
2021/08/01 00:43:26;;;;;;;11.10;7.30;;;;;;;29.55;45.41;99201.88;5051296;28;20025;-80
2021/08/01 00:45:51;;;;;;;11.88;8.23;;;;;;;29.49;45.76;99197.69;5051588;28;20100;-80
2021/08/01 00:48:17;;;;;;;12.43;7.45;;;;;;;29.42;46.24;99200.00;5051185;28;20027;-80
2021/08/01 00:50:43;;;;;;;12.32;7.75;;;;;;;28.83;46.18;99114.97;5051349;28;20410;-80
2021/08/01 00:53:09;;;;;;;12.10;7.40;;;;;;;29.18;46.47;99159.56;5051306;28;20456;-80
2021/08/01 00:55:35;;;;;;;12.05;7.72;;;;;;;28.97;46.54;99126.59;5051547;28;20104;-80
2021/08/01 00:58:00;;;;;;;15.02;8.77;;;;;;;29.07;46.65;99142.69;5051403;28;20107;-80
2021/08/01 01:00:43;;;;;;;13.85;8.20;;;;;;;28.70;47.15;99113.09;5051849;28;20017;-79
2021/08/01 01:03:34;;;;;;;14.52;7.80;;;;;;;28.45;47.72;99093.56;5051366;28;20025;-82
2021/08/01 01:06:06;;;;;;;12.82;8.18;;;;;;;28.67;47.46;99130.81;5051376;28;20398;-80
2021/08/01 01:08:47;;;;;;;12.63;8.15;;;;;;;28.94;47.57;99159.84;5050198;28;20032;-80
2021/08/01 01:11:16;;;;;;;11.52;8.25;;;;;;;28.92;47.39;99145.75;5051221;28;20094;-78
2021/08/01 01:13:46;;;;;;;12.45;8.30;;;;;;;28.95;47.45;99152.47;5051364;28;20025;-80
2021/08/01 01:16:12;;;;;;;12.30;8.63;;;;;;;28.39;47.82;99089.38;5051216;28;20029;-81
2021/08/01 01:18:49;;;;;;;10.52;7.88;;;;;;;28.82;48.58;99156.81;5051221;28;20086;-81
2021/08/01 01:21:30;;;;;;;12.13;8.57;;;;;;;28.69;47.97;99135.94;5050973;28;20032;-80
2021/08/01 01:24:01;;;;;;;;;;;;;;;28.61;48.82;99169.28;5051364;28;20044;-76
2021/08/01 01:26:35;;;;;;;16.63;8.25;;;;;;;28.66;48.59;99169.97;5050877;28;19938;-76
2021/08/01 01:29:09;;;;;;;11.48;8.93;;;;;;;28.76;48.00;99171.66;5051056;28;20067;-77
2021/08/01 01:31:49;;;;;;;14.27;8.50;;;;;;;28.75;48.21;99170.03;5051028;28;20047;-75
2021/08/01 01:34:36;;;;;;;14.93;8.82;;;;;;;28.69;48.38;99171.25;5051272;28;20029;-76
2021/08/01 01:37:03;;;;;;;10.52;8.30;;;;;;;28.57;48.47;99146.56;5051457;28;20071;-76
2021/08/01 01:39:35;;;;;;;14.93;9.48;;;;;;;28.52;48.15;99139.31;5050923;28;20079;-76
2021/08/01 01:42:02;;;;;;;16.92;7.80;;;;;;;28.61;48.57;99166.56;5050801;28;20032;-76
2021/08/01 01:44:28;;;;;;;13.32;9.10;;;;;;;27.98;48.86;99088.59;5050606;28;20454;-76
2021/08/01 01:46:55;;;;;;;11.68;8.65;;;;;;;28.34;49.30;99159.28;5050820;28;20099;-77
2021/08/01 01:49:23;;;;;;;13.18;9.80;;;;;;;28.32;49.28;99165.00;5050827;28;20025;-76
2021/08/01 01:51:48;;;;;;;14.50;9.85;;;;;;;27.85;49.68;99107.28;5050878;28;20056;-76
2021/08/01 01:54:14;;;;;;;15.70;9.45;;;;;;;28.27;49.70;99154.25;5050741;28;20091;-76
2021/08/01 01:56:40;;;;;;;13.70;9.68;;;;;;;27.78;49.27;99049.94;5050833;28;20052;-76
2021/08/01 01:59:06;;;;;;;13.82;9.15;;;;;;;28.34;49.22;99137.56;5051507;28;20025;-74
2021/08/01 02:01:33;;;;;;;11.35;8.77;;;;;;;27.49;49.21;98998.66;5054311;28;20104;-76
2021/08/01 02:03:58;;;;;;;10.80;8.85;;;;;;;28.00;49.35;99098.03;5054385;28;20021;-77
2021/08/01 02:06:24;;;;;;;15.10;9.13;;;;;;;28.35;49.32;99147.31;5052990;28;20028;-77
2021/08/01 02:09:12;;;;;;;14.30;9.40;;;;;;;28.47;49.25;99164.69;5053918;28;20020;-75
2021/08/01 02:12:15;;;;;;;13.00;8.95;;;;;;;28.29;49.51;99143.09;5054153;28;20033;-76
2021/08/01 02:14:44;;;;;;;14.68;8.77;;;;;;;28.46;49.10;99168.50;5054071;28;20025;-75
2021/08/01 02:17:12;;;;;;;16.77;10.00;;;;;;;28.30;49.36;99161.78;5054124;28;20490;-76
2021/08/01 02:19:42;;;;;;;13.73;9.38;;;;;;;28.28;49.63;99177.59;5054150;28;20036;-76
2021/08/01 02:22:08;;;;;;;13.25;10.10;;;;;;;28.24;49.82;99179.31;5054094;28;20032;-76
2021/08/01 02:24:35;;;;;;;14.60;9.82;;;;;;;27.90;49.75;99121.88;5052927;28;20504;-80
2021/08/01 02:27:02;;;;;;;16.05;9.80;;;;;;;28.22;49.45;99162.44;5054268;28;20029;-80
2021/08/01 02:29:29;;;;;;;15.60;9.65;;;;;;;28.09;49.63;99136.13;5053914;28;20021;-81
2021/08/01 02:31:55;;;;;;;14.27;10.40;;;;;;;27.99;49.74;99133.63;5054061;28;20068;-80
2021/08/01 02:34:24;;;;;;;12.07;9.30;;;;;;;28.18;49.57;99170.41;5053938;28;20029;-80
2021/08/01 02:36:52;;;;;;;11.65;9.60;;;;;;;27.59;49.89;99092.59;5053913;28;20055;-81
2021/08/01 02:39:20;;;;;;;14.55;10.30;;;;;;;28.13;50.21;99178.66;5052558;28;20024;-80
2021/08/01 02:41:46;;;;;;;13.57;9.43;;;;;;;27.73;50.06;99125.19;5053637;28;20163;-80
2021/08/01 02:44:15;;;;;;;11.43;9.10;;;;;;;28.03;49.99;99159.03;5053633;28;20100;-81
2021/08/01 02:46:42;;;;;;;13.10;9.48;;;;;;;27.78;50.04;99120.47;5054025;28;20029;-81
2021/08/01 02:49:15;;;;;;;16.65;9.77;;;;;;;27.81;49.99;99121.75;5053582;28;20032;-81
2021/08/01 02:51:41;;;;;;;15.75;10.63;;;;;;;27.77;49.75;99113.44;5052244;28;20047;-81
2021/08/01 02:54:08;;;;;;;12.52;9.63;;;;;;;27.97;49.83;99149.41;5053321;28;20493;-81
2021/08/01 02:56:35;;;;;;;14.82;10.15;;;;;;;27.71;49.90;99113.81;5053439;28;20056;-81
2021/08/01 02:59:02;;;;;;;13.88;9.32;;;;;;;28.26;49.81;99190.66;5053279;28;20518;-80
2021/08/01 03:01:30;;;;;;;15.02;9.50;;;;;;;28.26;49.80;99190.66;5051783;28;20044;-80
2021/08/01 03:03:57;;;;;;;13.35;10.38;;;;;;;28.26;49.70;99185.22;5053057;28;20032;-81
2021/08/01 03:06:23;;;;;;;12.48;9.25;;;;;;;28.12;49.82;99158.03;5053102;28;20025;-81
2021/08/01 03:08:48;;;;;;;18.17;9.52;;;;;;;28.09;49.87;99158.63;5053126;28;20040;-80
2021/08/01 03:11:21;;;;;;;13.35;9.10;;;;;;;28.28;49.94;99183.00;5053145;28;20021;-80
2021/08/01 03:13:46;;;;;;;12.25;9.68;;;;;;;27.79;50.07;99129.41;5052987;28;20032;-80
2021/08/01 03:16:11;;;;;;;13.25;9.80;;;;;;;28.00;50.41;99167.78;5053002;28;20017;-80
2021/08/01 03:18:37;;;;;;;15.50;10.60;;;;;;;27.49;50.58;99101.69;5052964;28;20029;-80
2021/08/01 03:21:02;;;;;;;12.10;9.68;;;;;;;27.79;50.54;99157.34;5052952;28;20013;-81
2021/08/01 03:23:28;;;;;;;17.30;10.73;;;;;;;27.94;50.94;99193.41;5053034;28;20017;-80
2021/08/01 03:25:53;;;;;;;13.32;10.05;;;;;;;27.25;51.08;99090.22;5053015;28;20025;-81
2021/08/01 03:28:18;;;;;;;13.10;9.98;;;;;;;27.78;51.17;99184.75;5052651;28;20370;-81
2021/08/01 03:30:44;;;;;;;14.15;10.45;;;;;;;27.92;51.04;99201.06;5052540;28;20027;-81
2021/08/01 03:33:09;;;;;;;15.18;10.73;;;;;;;27.48;51.35;99139.97;5052626;28;20028;-82
2021/08/01 03:35:34;;;;;;;16.02;11.20;;;;;;;27.47;51.38;99132.94;5052483;28;20052;-81
2021/08/01 03:38:00;;;;;;;15.35;10.15;;;;;;;27.88;51.18;99200.03;5052532;28;20040;-81
2021/08/01 03:40:25;;;;;;;16.95;11.38;;;;;;;27.29;51.14;99093.13;5052578;28;20482;-79
2021/08/01 03:42:51;;;;;;;12.77;9.88;;;;;;;27.64;51.00;99146.78;5052304;28;20021;-81
2021/08/01 03:45:17;;;;;;;14.32;11.00;;;;;;;27.57;50.96;99130.06;5052285;28;20021;-80
2021/08/01 03:47:42;;;;;;;15.88;11.48;;;;;;;27.72;51.24;99175.91;5052324;28;20479;-80
2021/08/01 03:50:08;;;;;;;17.42;11.50;;;;;;;27.64;51.38;99175.81;5052110;28;20409;-78
2021/08/01 03:52:34;;;;;;;19.60;11.73;;;;;;;27.25;51.28;99120.03;5050785;28;20072;-80
2021/08/01 03:54:59;;;;;;;17.23;11.48;;;;;;;27.42;51.49;99160.94;5051947;28;20107;-80
2021/08/01 03:57:24;;;;;;;14.20;11.10;;;;;;;27.68;51.29;99202.03;5052202;28;20478;-80
2021/08/01 03:59:50;;;;;;;18.10;11.00;;;;;;;27.61;51.12;99196.19;5052096;28;20099;-79
2021/08/01 04:02:16;;;;;;;14.60;10.55;;;;;;;27.67;50.91;99202.34;5052025;28;20410;-79
2021/08/01 04:04:41;;;;;;;15.60;11.45;;;;;;;27.58;50.59;99180.50;5051705;28;20027;-79
2021/08/01 04:07:06;;;;;;;16.80;10.98;;;;;;;27.60;50.35;99174.75;5052066;28;20111;-80
2021/08/01 04:09:32;;;;;;;15.50;11.48;;;;;;;27.78;50.41;99201.03;5051889;28;20072;-80
2021/08/01 04:11:58;;;;;;;17.63;11.20;;;;;;;27.81;50.29;99209.38;5052016;28;20021;-79
2021/08/01 04:14:26;;;;;;;13.73;11.10;;;;;;;27.43;50.31;99153.63;5051947;28;20556;-80
2021/08/01 04:16:51;;;;;;;17.77;11.63;;;;;;;27.82;50.31;99219.13;5050493;28;20029;-80
2021/08/01 04:19:17;;;;;;;15.65;11.00;;;;;;;27.64;50.64;99217.28;5051759;28;20025;-80
2021/08/01 04:21:44;;;;;;;13.63;11.32;;;;;;;27.69;50.73;99209.06;5051296;28;20021;-80
2021/08/01 04:24:10;;;;;;;13.45;9.80;;;;;;;27.35;50.52;99149.69;5051752;28;20502;-80
2021/08/01 04:26:36;;;;;;;16.63;10.90;;;;;;;27.74;50.37;99200.03;5051757;28;20033;-80
2021/08/01 04:29:03;;;;;;;15.73;11.15;;;;;;;27.84;50.49;99213.41;5051659;28;20615;-79
2021/08/01 04:31:28;;;;;;;17.10;11.93;;;;;;;27.89;50.47;99217.94;5051609;28;20112;-79
2021/08/01 04:33:54;;;;;;;19.63;11.00;;;;;;;27.88;50.28;99205.47;5050364;28;20058;-79
2021/08/01 04:36:19;;;;;;;15.05;10.98;;;;;;;27.99;50.27;99204.19;5051518;28;20035;-80
2021/08/01 04:38:44;;;;;;;16.08;11.63;;;;;;;28.02;50.27;99220.66;5051566;28;20032;-80
2021/08/01 04:41:10;;;;;;;15.35;11.70;;;;;;;28.02;50.35;99204.38;5051403;28;20013;-79
2021/08/01 04:43:35;;;;;;;17.00;12.07;;;;;;;28.19;50.42;99225.50;5051326;28;20028;-79
2021/08/01 04:46:01;;;;;;;13.60;10.90;;;;;;;28.22;50.34;99224.88;5051418;28;20545;-79
2021/08/01 04:48:26;;;;;;;15.55;11.45;;;;;;;27.87;50.50;99171.31;5050949;28;20094;-79
2021/08/01 04:50:52;;;;;;;17.80;11.88;;;;;;;28.16;50.84;99223.38;5051096;28;20071;-79
2021/08/01 04:53:17;;;;;;;18.90;12.38;;;;;;;28.21;50.75;99230.63;5051158;28;20029;-79
2021/08/01 04:55:43;;;;;;;15.05;11.50;;;;;;;28.15;50.86;99228.00;5051339;28;20406;-79
2021/08/01 04:58:08;;;;;;;16.27;12.57;;;;;;;28.21;50.98;99234.13;5051364;28;20021;-79
2021/08/01 05:00:34;;;;;;;17.25;11.48;;;;;;;28.28;50.88;99221.03;5051305;28;20013;-80
2021/08/01 05:03:03;;;;;;;15.73;11.77;;;;;;;28.32;50.88;99213.88;5051371;28;20017;-79
2021/08/01 05:05:34;;;;;;;18.02;11.73;;;;;;;28.18;50.99;99191.31;5051280;28;20025;-79
2021/08/01 05:08:00;;;;;;;14.68;11.27;;;;;;;28.32;51.05;99219.31;5051353;28;20456;-79
2021/08/01 05:10:25;;;;;;;17.67;12.93;;;;;;;27.97;51.07;99171.09;5051424;28;20029;-80
2021/08/01 05:12:51;;;;;;;16.08;12.45;;;;;;;28.01;51.04;99155.81;5051522;28;20025;-80
2021/08/01 05:15:16;;;;;;;14.57;11.13;;;;;;;28.17;50.92;99176.94;5050144;28;20430;-80
2021/08/01 05:17:42;;;;;;;18.17;11.68;;;;;;;28.38;50.79;99201.81;5050018;28;20025;-79
2021/08/01 05:20:08;;;;;;;17.27;12.40;;;;;;;28.12;50.96;99163.47;5051474;28;20017;-79
2021/08/01 05:22:33;;;;;;;15.32;11.98;;;;;;;28.38;50.79;99207.25;5049955;28;20021;-79
2021/08/01 05:24:58;;;;;;;14.32;11.82;;;;;;;28.07;50.79;99146.47;5051259;28;20555;-76
2021/08/01 05:27:24;;;;;;;14.43;11.35;;;;;;;28.34;50.51;99195.38;5051115;28;20044;-75
2021/08/01 05:29:49;;;;;;;16.15;11.80;;;;;;;28.53;50.56;99227.84;5051012;28;20116;-75
2021/08/01 05:32:14;;;;;;;14.52;12.10;;;;;;;28.60;50.11;99227.44;5050834;28;20040;-75
2021/08/01 05:34:40;;;;;;;17.00;11.90;;;;;;;28.50;49.87;99203.19;5052802;28;20147;-75
2021/08/01 05:37:05;;;;;;;17.67;10.52;;;;;;;28.60;49.31;99227.44;5053557;28;20024;-75
2021/08/01 05:39:34;;;;;;;13.85;9.95;;;;;;;28.59;49.06;99209.53;5054766;28;20473;-75
2021/08/01 05:41:59;;;;;;;13.32;10.35;;;;;;;28.50;48.44;99193.13;5053474;28;20078;-74
2021/08/01 05:44:25;;;;;;;14.30;10.75;;;;;;;28.29;48.09;99168.34;5054593;28;20020;-73
2021/08/01 05:46:50;;;;;;;11.93;9.20;;;;;;;28.68;47.54;99224.78;5054761;28;20078;-75
2021/08/01 05:49:15;;;;;;;12.93;9.52;;;;;;;28.78;47.14;99238.16;5054662;28;20508;-76
2021/08/01 05:51:41;;;;;;;13.35;9.23;;;;;;;28.57;46.76;99195.44;5053355;28;20135;-74
2021/08/01 05:54:06;;;;;;;15.55;10.02;;;;;;;28.78;46.52;99227.28;5054117;28;20393;-73
2021/08/01 05:56:32;;;;;;;15.02;9.63;;;;;;;28.57;46.33;99177.22;5052975;28;20162;-74
2021/08/01 05:58:57;;;;;;;14.38;9.30;;;;;;;28.66;46.19;99193.63;5054733;28;20055;-74
2021/08/01 06:01:24;;;;;;;9.95;8.95;;;;;;;28.88;45.52;99218.13;5054374;28;20387;-73
2021/08/01 06:03:50;;;;;;;11.80;8.70;;;;;;;28.86;45.33;99219.56;5054187;28;20025;-77
2021/08/01 06:06:22;;;;;;;12.70;9.10;;;;;;;29.06;44.92;99247.09;5054265;28;20025;-76
2021/08/01 06:08:48;;;;;;;11.43;9.00;;;;;;;28.78;44.44;99207.47;5052825;28;20110;-76
2021/08/01 06:11:14;;;;;;;10.85;9.23;;;;;;;29.18;44.42;99253.91;5054209;28;20017;-75
2021/08/01 06:13:41;;;;;;;11.18;8.30;;;;;;;29.22;44.05;99254.91;5054350;28;20021;-75
2021/08/01 06:16:08;;;;;;;11.90;8.90;;;;;;;29.22;43.90;99252.19;5053927;28;20177;-76
2021/08/01 06:18:34;;;;;;;14.95;9.30;;;;;;;29.27;44.18;99257.50;5054119;28;20489;-76
2021/08/01 06:21:07;;;;;;;11.93;9.05;;;;;;;28.82;43.38;99178.56;5054164;28;20482;-76
2021/08/01 06:23:34;;;;;;;12.23;8.93;;;;;;;29.25;43.05;99240.69;5054132;28;20025;-80
2021/08/01 06:26:00;;;;;;;13.25;9.38;;;;;;;29.40;42.93;99262.06;5052629;28;20094;-78
2021/08/01 06:28:25;;;;;;;11.70;8.75;;;;;;;29.52;42.72;99247.94;5053666;28;20514;-78
2021/08/01 06:30:51;;;;;;;12.98;9.15;;;;;;;29.61;42.48;99265.13;5053733;28;20017;-80
2021/08/01 06:33:16;;;;;;;12.75;9.27;;;;;;;29.14;42.62;99184.94;5052541;28;20059;-79
2021/08/01 06:35:42;;;;;;;11.13;9.77;;;;;;;29.45;42.71;99221.19;5054014;28;20486;-79
2021/08/01 06:38:07;;;;;;;14.35;9.45;;;;;;;29.52;42.52;99216.09;5053822;28;20071;-80
2021/08/01 06:40:33;;;;;;;14.25;10.80;;;;;;;29.26;42.73;99172.41;5053740;28;20485;-80
2021/08/01 06:42:58;;;;;;;13.38;9.30;;;;;;;29.67;42.28;99228.50;5052284;28;20017;-80
2021/08/01 06:45:23;;;;;;;16.92;10.85;;;;;;;29.79;42.17;99225.25;5051865;28;20404;-80
2021/08/01 06:47:49;;;;;;;10.82;8.60;;;;;;;29.83;41.85;99220.78;5053791;28;20036;-80
2021/08/01 06:50:15;;;;;;;12.18;9.07;;;;;;;29.68;41.81;99189.31;5053670;28;20029;-80
2021/08/01 06:52:40;;;;;;;14.98;9.45;;;;;;;29.64;41.49;99169.28;5053471;28;20021;-80
2021/08/01 06:55:06;;;;;;;11.88;9.95;;;;;;;29.88;41.36;99190.72;5053310;28;20086;-81
2021/08/01 06:57:31;;;;;;;16.15;9.77;;;;;;;29.82;40.95;99181.88;5053131;28;20421;-80
2021/08/01 06:59:57;;;;;;;13.77;9.60;;;;;;;30.26;41.10;99232.69;5053274;28;20074;-80
2021/08/01 07:02:22;;;;;;;12.50;9.60;;;;;;;30.24;40.87;99215.06;5053481;28;20074;-79
2021/08/01 07:04:47;;;;;;;10.45;9.35;;;;;;;30.28;40.83;99213.31;5053340;28;20024;-80
2021/08/01 07:07:13;;;;;;;10.95;9.68;;;;;;;30.26;40.80;99186.38;5053313;28;20129;-80
2021/08/01 07:09:41;;;;;;;11.60;9.20;;;;;;;30.37;40.53;99200.50;5053130;28;20021;-80
2021/08/01 07:12:08;;;;;;;13.07;9.70;;;;;;;30.47;40.64;99196.69;5053052;28;20024;-80
2021/08/01 07:14:34;;;;;;;13.57;9.32;;;;;;;30.78;40.55;99227.41;5052932;28;20031;-79
2021/08/01 07:17:01;;;;;;;12.82;9.73;;;;;;;30.41;39.64;99170.72;5052835;28;20103;-79
2021/08/01 07:19:26;;;;;;;13.55;9.82;;;;;;;30.39;39.25;99151.16;5052638;28;20052;-80
2021/08/01 07:21:52;;;;;;;16.88;9.70;;;;;;;30.75;39.25;99194.53;5052795;28;20024;-81
2021/08/01 07:24:17;;;;;;;13.07;9.07;;;;;;;31.01;38.72;99224.53;5051771;28;20024;-74
2021/08/01 07:26:43;;;;;;;9.77;8.68;;;;;;;30.56;38.85;99167.56;5051405;28;20125;-76
2021/08/01 07:29:08;;;;;;;13.15;9.25;;;;;;;30.83;38.08;99174.66;5052647;28;20025;-74
2021/08/01 07:31:33;;;;;;;13.88;9.15;;;;;;;30.67;38.30;99147.06;5052472;28;20459;-76
2021/08/01 07:34:00;;;;;;;10.05;8.60;;;;;;;31.20;38.08;99219.56;5051210;28;20035;-76
2021/08/01 07:36:27;;;;;;;17.80;9.98;;;;;;;31.12;37.80;99195.81;5052491;28;20104;-76
2021/08/01 07:38:52;;;;;;;11.48;9.30;;;;;;;31.36;37.80;99211.72;5052381;28;20506;-74
2021/08/01 07:41:17;;;;;;;14.02;10.35;;;;;;;31.08;37.23;99165.66;5050980;28;20116;-74
2021/08/01 07:43:43;;;;;;;12.77;8.30;;;;;;;31.19;37.35;99174.31;5052432;28;20024;-74
2021/08/01 07:46:08;;;;;;;12.15;8.93;;;;;;;31.38;37.17;99171.28;5052538;28;20494;-75
2021/08/01 07:48:34;;;;;;;13.48;9.73;;;;;;;31.66;37.14;99204.44;5052629;28;20555;-75
2021/08/01 07:51:00;;;;;;;10.40;9.30;;;;;;;31.76;36.77;99199.44;5052338;28;20027;-76
2021/08/01 07:53:26;;;;;;;14.00;9.18;;;;;;;31.56;36.71;99146.34;5052243;28;20025;-76
2021/08/01 07:55:52;;;;;;;14.13;9.50;;;;;;;31.56;36.60;99138.16;5052146;28;20100;-76
2021/08/01 07:58:19;;;;;;;13.52;9.70;;;;;;;32.04;36.55;99216.22;5051724;28;20076;-75
2021/08/01 08:00:44;;;;;;;12.00;9.05;;;;;;;32.05;36.32;99193.25;5052371;28;20490;-75
2021/08/01 08:03:10;;;;;;;15.65;10.45;;;;;;;31.85;36.09;99162.00;5052157;28;20036;-75
2021/08/01 08:05:35;;;;;;;14.95;9.95;;;;;;;32.23;36.07;99205.69;5050514;28;20036;-75
2021/08/01 08:08:00;;;;;;;10.13;9.07;;;;;;;32.09;36.13;99163.34;5052014;28;20087;-76
2021/08/01 08:10:26;;;;;;;11.57;9.73;;;;;;;32.32;35.29;99194.75;5051664;28;20117;-76
2021/08/01 08:12:52;;;;;;;12.25;9.57;;;;;;;32.51;35.29;99208.78;5051877;28;20032;-75
2021/08/01 08:15:17;;;;;;;11.88;9.35;;;;;;;32.28;35.22;99166.47;5051914;28;20040;-76
2021/08/01 08:17:43;;;;;;;13.27;10.30;;;;;;;32.74;35.40;99203.81;5051784;28;20036;-77
2021/08/01 08:20:09;;;;;;;11.48;9.30;;;;;;;32.60;35.55;99164.16;5051985;28;20021;-75
2021/08/01 08:22:35;;;;;;;15.05;10.02;;;;;;;32.96;34.78;99197.22;5050609;28;20036;-76
2021/08/01 08:25:01;;;;;;;14.07;10.07;;;;;;;32.59;34.39;99129.78;5051578;28;20029;-74
2021/08/01 08:27:26;;;;;;;10.60;8.77;;;;;;;32.94;34.49;99163.16;5050221;28;20039;-74
2021/08/01 08:29:52;;;;;;;11.57;10.02;;;;;;;33.07;34.69;99162.06;5051498;28;20460;-76
2021/08/01 08:32:17;;;;;;;12.60;9.07;;;;;;;33.02;34.52;99143.13;5051398;28;20391;-73
2021/08/01 08:34:43;;;;;;;12.63;9.23;;;;;;;33.01;34.37;99139.59;5050442;28;20025;-73
2021/08/01 08:37:09;;;;;;;11.15;9.75;;;;;;;32.85;33.97;99092.13;5051597;28;20020;-73
2021/08/01 08:39:35;;;;;;;13.82;11.18;;;;;;;33.24;33.48;99141.94;5051399;28;20104;-73
2021/08/01 08:42:00;;;;;;;13.77;10.88;;;;;;;33.12;33.33;99129.03;5051167;28;20039;-77
2021/08/01 08:44:27;;;;;;;12.35;9.68;;;;;;;33.67;32.74;99188.03;5051034;28;20052;-73
2021/08/01 08:46:55;;;;;;;15.38;10.50;;;;;;;33.68;32.52;99178.69;5051271;28;20036;-74
2021/08/01 08:49:21;;;;;;;12.05;10.85;;;;;;;33.83;32.69;99185.47;5051691;28;20037;-75
2021/08/01 08:51:50;;;;;;;13.95;10.63;;;;;;;34.01;32.95;99187.66;5051247;28;20049;-75
2021/08/01 08:54:20;;;;;;;13.02;9.90;;;;;;;34.16;32.78;99183.41;5049943;28;20032;-75
2021/08/01 08:56:47;;;;;;;11.57;9.40;;;;;;;34.29;32.09;99186.97;5051413;28;20025;-76
2021/08/01 08:59:22;;;;;;;11.18;9.68;;;;;;;34.41;31.56;99185.06;5050864;28;20037;-74
2021/08/01 09:01:48;;;;;;;11.35;9.40;;;;;;;34.19;31.27;99135.34;5049828;28;20031;-75
2021/08/01 09:04:14;;;;;;;9.20;8.30;;;;;;;34.48;31.04;99159.78;5050148;28;20127;-75
2021/08/01 09:06:41;;;;;;;11.23;8.73;;;;;;;34.53;31.11;99145.06;5051400;28;20482;-74
2021/08/01 09:09:07;;;;;;;15.50;9.93;;;;;;;34.64;30.65;99148.91;5053720;28;20029;-74
2021/08/01 09:11:32;;;;;;;12.32;9.20;;;;;;;34.96;31.04;99167.13;5055078;28;20027;-76
2021/08/01 09:13:58;;;;;;;12.23;9.75;;;;;;;35.17;30.25;99175.16;5055173;28;20032;-74
2021/08/01 09:16:44;;;;;;;11.32;8.93;;;;;;;35.33;30.54;99178.75;5055125;28;20074;-74
2021/08/01 09:19:30;;;;;;;10.98;8.00;;;;;;;35.42;29.97;99170.34;5055243;28;20032;-74
2021/08/01 09:22:10;;;;;;;12.45;8.95;;;;;;;35.53;30.29;99168.69;5054797;28;20135;-76
2021/08/01 09:24:36;;;;;;;10.80;8.40;;;;;;;35.42;29.76;99139.34;5055429;28;20036;-79
2021/08/01 09:27:03;;;;;;;11.13;8.10;;;;;;;35.77;29.62;99164.19;5055483;28;20032;-81
2021/08/01 09:29:30;;;;;;;11.90;9.20;;;;;;;35.91;29.02;99165.38;5054850;28;20110;-79
2021/08/01 09:32:00;;;;;;;9.63;8.63;;;;;;;36.09;28.82;99163.06;5054754;28;20036;-79
2021/08/01 09:34:27;;;;;;;15.37;8.50;;;;;;;36.29;28.70;99156.47;5055129;28;20033;-79
2021/08/01 09:37:02;;;;;;;9.82;8.00;;;;;;;36.54;28.37;99159.00;5054966;28;20340;-81
2021/08/01 09:39:28;;;;;;;13.40;9.13;;;;;;;36.45;27.97;99117.97;5054768;28;20057;-81
2021/08/01 09:42:00;;;;;;;13.35;9.15;;;;;;;36.58;27.97;99111.16;5053386;28;20029;-81
2021/08/01 09:44:25;;;;;;;9.00;8.10;;;;;;;36.95;27.57;99138.25;5054580;28;20049;-81
2021/08/01 09:46:55;;;;;;;12.50;8.43;;;;;;;37.16;27.18;99151.63;5055608;28;20040;-80
2021/08/01 09:49:22;;;;;;;11.13;8.38;;;;;;;37.29;26.84;99149.56;5054766;28;20028;-80
2021/08/01 09:52:02;;;;;;;10.90;9.05;;;;;;;37.09;26.04;99127.50;5054597;28;20027;-80
2021/08/01 09:54:49;;;;;;;12.88;9.10;;;;;;;37.48;26.28;99135.75;5053456;28;20041;-80
2021/08/01 09:57:19;;;;;;;12.70;7.60;;;;;;;37.60;26.12;99135.53;5054461;28;20570;-80
2021/08/01 09:59:47;;;;;;;13.18;8.00;;;;;;;37.60;26.08;99105.25;5054843;28;20033;-81
2021/08/01 10:02:13;;;;;;;13.65;9.05;;;;;;;37.60;25.90;99096.97;5054570;28;20112;-81
2021/08/01 10:04:40;;;;;;;11.23;8.05;;;;;;;37.73;25.25;99112.19;5053185;28;20108;-81
2021/08/01 10:07:15;;;;;;;12.00;8.88;;;;;;;38.03;25.48;99134.31;5054233;28;20028;-81
2021/08/01 10:09:45;;;;;;;11.80;8.18;;;;;;;38.22;25.15;99133.44;5054238;28;20489;-80
2021/08/01 10:12:12;;;;;;;13.45;8.23;;;;;;;37.91;25.15;99059.31;5052892;28;20021;-80
2021/08/01 10:14:38;;;;;;;9.90;8.90;;;;;;;38.48;24.84;99121.56;5052769;28;20035;-80
2021/08/01 10:17:05;;;;;;;11.15;8.63;;;;;;;38.63;24.78;99125.31;5053878;28;20504;-81
2021/08/01 10:19:31;;;;;;;10.95;7.72;;;;;;;38.44;24.61;99071.06;5053451;28;20099;-80
2021/08/01 10:21:59;;;;;;;12.55;7.90;;;;;;;38.84;23.73;99114.56;5052756;28;20569;-80
2021/08/01 10:24:37;;;;;;;10.63;7.45;;;;;;;39.00;23.53;99117.91;5054005;28;20060;-75
2021/08/01 10:27:05;;;;;;;17.02;8.02;;;;;;;38.93;23.87;99079.16;5054097;28;20115;-75
2021/08/01 10:29:44;;;;;;;12.38;7.55;;;;;;;39.22;23.08;99107.88;5053825;28;20029;-75
2021/08/01 10:32:12;;;;;;;11.13;9.45;;;;;;;39.22;23.27;99107.09;5053676;28;20490;-75
2021/08/01 10:34:40;;;;;;;17.27;14.23;;;;;;;39.34;23.51;99106.81;5053824;28;20052;-75
2021/08/01 10:37:08;;;;;;;14.65;9.82;;;;;;;39.52;23.46;99098.72;5052339;28;20028;-75
2021/08/01 10:39:35;;;;;;;19.38;12.20;;;;;;;39.71;23.03;99102.03;5053644;28;20047;-75
2021/08/01 10:42:07;;;;;;;12.43;8.63;;;;;;;39.88;22.73;99094.25;5053408;28;20628;-76
2021/08/01 10:44:34;;;;;;;15.63;11.77;;;;;;;39.88;22.62;99085.97;5053772;28;20040;-75
2021/08/01 10:47:03;;;;;;;13.25;10.10;;;;;;;39.96;22.73;99063.53;5052282;28;20058;-75
2021/08/01 10:49:28;;;;;;;11.25;8.23;;;;;;;40.26;22.28;99081.88;5053542;28;20024;-75
2021/08/01 10:51:54;;;;;;;12.60;9.00;;;;;;;40.00;22.20;99063.56;5053714;28;20029;-75
2021/08/01 10:54:19;;;;;;;11.50;8.60;;;;;;;40.05;21.98;99078.97;5053328;28;20079;-75
2021/08/01 10:56:46;;;;;;;12.65;8.80;;;;;;;39.84;21.98;99040.91;5053124;28;20027;-75
2021/08/01 10:59:45;;;;;;;12.63;9.52;;;;;;;40.31;21.99;99076.78;5051916;28;20111;-75
2021/08/01 11:02:15;;;;;;;10.32;8.38;;;;;;;40.25;21.70;99058.16;5053086;28;20025;-75
2021/08/01 11:04:46;;;;;;;14.90;9.05;;;;;;;40.51;21.53;99062.66;5053759;28;20520;-75
2021/08/01 11:07:12;;;;;;;17.13;11.93;;;;;;;40.59;21.99;99061.50;5053237;28;20489;-75
2021/08/01 11:09:37;;;;;;;11.25;9.02;;;;;;;40.49;22.14;99056.72;5052908;28;20409;-75
2021/08/01 11:12:44;;;;;;;16.58;10.38;;;;;;;40.53;22.22;99051.97;5052834;28;20115;-75
2021/08/01 11:15:15;;;;;;;12.88;8.95;;;;;;;40.32;21.83;99017.50;5050785;28;20045;-76
2021/08/01 11:17:41;;;;;;;13.15;9.05;;;;;;;40.60;21.74;99052.78;5053012;28;20029;-75
2021/08/01 11:20:15;;;;;;;13.77;9.77;;;;;;;40.63;21.66;99046.47;5052755;28;20082;-76
2021/08/01 11:22:43;;;;;;;13.35;8.65;;;;;;;40.67;21.77;99038.19;5052790;28;20028;-75
2021/08/01 11:25:24;;;;;;;16.10;12.30;;;;;;;40.76;21.54;99046.91;5052980;28;20131;-75
2021/08/01 11:28:12;;;;;;;12.95;11.30;;;;;;;40.82;21.28;99037.06;5052823;28;20028;-76